Terminal Aerodrome Forecast
Issued by NWS Pocatello, ID

Home | Current Version | Previous Version | Text Only | Print | Product List | Glossary On
Versions: 1 2 3 4 5 6 7 8 9 10 11 12 13 14 15 16 17 18 19 20 21 22 23 24 25 26 27
000
FTUS45 KPIH 291700
TAFIDA
TAF
KIDA 291735Z 2918/3018 04007KT P6SM FEW030
     FM300200 VRB04KT 3SM BR BKN006
     FM300600 36005KT P6SM SCT006 BKN090=

USA.gov is the U.S. government's official web portal to all federal, state and local government web resources and services.